sensor_id;sensor_type;location;lat;lon;timestamp;temperature;humidity
64855;DHT22;51321;50.428;8.378;2023-03-21T00:02:31;8.70;99.90
64855;DHT22;51321;50.428;8.378;2023-03-21T00:05:13;8.70;99.90
64855;DHT22;51321;50.428;8.378;2023-03-21T00:07:55;8.80;99.90
64855;DHT22;51321;50.428;8.378;2023-03-21T00:10:36;8.80;99.90
64855;DHT22;51321;50.428;8.378;2023-03-21T00:13:17;8.80;99.90
64855;DHT22;51321;50.428;8.378;2023-03-21T00:16:03;8.80;99.90
64855;DHT22;51321;50.428;8.378;2023-03-21T00:18:45;8.90;99.90
64855;DHT22;51321;50.428;8.378;2023-03-21T00:21:28;8.90;99.90
64855;DHT22;51321;50.428;8.378;2023-03-21T00:24:10;8.90;99.90
64855;DHT22;51321;50.428;8.378;2023-03-21T00:26:51;8.80;99.90
64855;DHT22;51321;50.428;8.378;2023-03-21T00:29:33;8.80;99.90
64855;DHT22;51321;50.428;8.378;2023-03-21T00:32:13;8.80;99.90
64855;DHT22;51321;50.428;8.378;2023-03-21T00:34:54;8.80;99.90
64855;DHT22;51321;50.428;8.378;2023-03-21T00:37:36;8.70;99.90
64855;DHT22;51321;50.428;8.378;2023-03-21T00:40:17;8.70;99.90
64855;DHT22;51321;50.428;8.378;2023-03-21T00:42:59;8.80;99.90
64855;DHT22;51321;50.428;8.378;2023-03-21T00:45:40;8.70;99.90
64855;DHT22;51321;50.428;8.378;2023-03-21T00:48:21;8.80;99.90
64855;DHT22;51321;50.428;8.378;2023-03-21T00:51:11;8.80;99.90
64855;DHT22;51321;50.428;8.378;2023-03-21T00:53:57;8.70;99.90
64855;DHT22;51321;50.428;8.378;2023-03-21T00:56:40;8.70;99.90
64855;DHT22;51321;50.428;8.378;2023-03-21T00:59:22;8.70;99.90
64855;DHT22;51321;50.428;8.378;2023-03-21T01:02:03;8.70;99.90
64855;DHT22;51321;50.428;8.378;2023-03-21T01:04:45;8.70;99.90
64855;DHT22;51321;50.428;8.378;2023-03-21T01:07:26;8.70;99.90
64855;DHT22;51321;50.428;8.378;2023-03-21T01:10:10;8.90;99.90
64855;DHT22;51321;50.428;8.378;2023-03-21T01:12:50;8.90;99.90
64855;DHT22;51321;50.428;8.378;2023-03-21T01:15:31;8.90;99.90
64855;DHT22;51321;50.428;8.378;2023-03-21T01:18:13;8.80;99.90
64855;DHT22;51321;50.428;8.378;2023-03-21T01:20:56;8.70;99.90
64855;DHT22;51321;50.428;8.378;2023-03-21T01:23:39;8.80;99.90
64855;DHT22;51321;50.428;8.378;2023-03-21T01:26:22;8.70;99.90
64855;DHT22;51321;50.428;8.378;2023-03-21T01:29:03;8.70;99.90
64855;DHT22;51321;50.428;8.378;2023-03-21T01:31:44;8.70;99.90
64855;DHT22;51321;50.428;8.378;2023-03-21T01:34:26;8.70;99.90
64855;DHT22;51321;50.428;8.378;2023-03-21T01:37:07;8.70;99.90
64855;DHT22;51321;50.428;8.378;2023-03-21T01:39:56;8.60;99.90
64855;DHT22;51321;50.428;8.378;2023-03-21T01:42:38;8.60;99.90
64855;DHT22;51321;50.428;8.378;2023-03-21T01:48:55;8.60;99.90
64855;DHT22;51321;50.428;8.378;2023-03-21T01:51:41;8.60;99.90
64855;DHT22;51321;50.428;8.378;2023-03-21T01:54:26;8.50;99.90
64855;DHT22;51321;50.428;8.378;2023-03-21T01:57:09;8.50;99.90
64855;DHT22;51321;50.428;8.378;2023-03-21T01:59:53;8.50;99.90
64855;DHT22;51321;50.428;8.378;2023-03-21T02:02:59;8.50;99.90
64855;DHT22;51321;50.428;8.378;2023-03-21T02:05:58;8.50;99.90
64855;DHT22;51321;50.428;8.378;2023-03-21T02:08:44;8.50;99.90
64855;DHT22;51321;50.428;8.378;2023-03-21T02:14:32;8.50;99.90
64855;DHT22;51321;50.428;8.378;2023-03-21T02:17:27;8.50;99.90
64855;DHT22;51321;50.428;8.378;2023-03-21T02:20:34;8.40;99.90
64855;DHT22;51321;50.428;8.378;2023-03-21T02:23:39;8.30;99.90
64855;DHT22;51321;50.428;8.378;2023-03-21T02:36:46;8.00;99.90
64855;DHT22;51321;50.428;8.378;2023-03-21T02:39:35;7.90;99.90
64855;DHT22;51321;50.428;8.378;2023-03-21T02:42:23;7.90;99.90
64855;DHT22;51321;50.428;8.378;2023-03-21T02:45:15;8.00;99.90
64855;DHT22;51321;50.428;8.378;2023-03-21T02:48:09;8.00;99.90
64855;DHT22;51321;50.428;8.378;2023-03-21T02:50:55;7.90;99.90
64855;DHT22;51321;50.428;8.378;2023-03-21T02:53:41;7.90;99.90
64855;DHT22;51321;50.428;8.378;2023-03-21T02:56:25;7.70;99.90
64855;DHT22;51321;50.428;8.378;2023-03-21T02:59:11;7.70;99.90
64855;DHT22;51321;50.428;8.378;2023-03-21T03:01:56;7.50;99.90
64855;DHT22;51321;50.428;8.378;2023-03-21T03:04:39;7.40;99.90
64855;DHT22;51321;50.428;8.378;2023-03-21T03:07:35;7.20;99.90
64855;DHT22;51321;50.428;8.378;2023-03-21T03:10:41;7.40;99.90
64855;DHT22;51321;50.428;8.378;2023-03-21T03:13:27;7.30;99.90
64855;DHT22;51321;50.428;8.378;2023-03-21T03:16:20;7.20;99.90
64855;DHT22;51321;50.428;8.378;2023-03-21T03:19:16;7.20;99.90
64855;DHT22;51321;50.428;8.378;2023-03-21T03:22:06;7.10;99.90
64855;DHT22;51321;50.428;8.378;2023-03-21T03:24:54;7.10;99.90
64855;DHT22;51321;50.428;8.378;2023-03-21T03:27:44;7.20;99.90
64855;DHT22;51321;50.428;8.378;2023-03-21T03:30:28;7.20;99.90
64855;DHT22;51321;50.428;8.378;2023-03-21T03:33:10;7.20;99.90
64855;DHT22;51321;50.428;8.378;2023-03-21T03:35:58;7.30;99.90
64855;DHT22;51321;50.428;8.378;2023-03-21T03:38:44;7.30;99.90
64855;DHT22;51321;50.428;8.378;2023-03-21T03:41:26;7.40;99.90
64855;DHT22;51321;50.428;8.378;2023-03-21T03:44:17;7.40;99.90
64855;DHT22;51321;50.428;8.378;2023-03-21T03:47:11;7.50;99.90
64855;DHT22;51321;50.428;8.378;2023-03-21T03:50:01;7.50;99.90
64855;DHT22;51321;50.428;8.378;2023-03-21T03:52:52;7.50;99.90
64855;DHT22;51321;50.428;8.378;2023-03-21T03:55:35;7.50;99.90
64855;DHT22;51321;50.428;8.378;2023-03-21T03:58:24;7.60;99.90
64855;DHT22;51321;50.428;8.378;2023-03-21T04:01:08;7.70;99.90
64855;DHT22;51321;50.428;8.378;2023-03-21T04:03:50;7.60;99.90
64855;DHT22;51321;50.428;8.378;2023-03-21T04:06:39;7.60;99.90
64855;DHT22;51321;50.428;8.378;2023-03-21T04:09:20;7.70;99.90
64855;DHT22;51321;50.428;8.378;2023-03-21T04:12:02;7.60;99.90
64855;DHT22;51321;50.428;8.378;2023-03-21T04:14:48;7.60;99.90
64855;DHT22;51321;50.428;8.378;2023-03-21T04:17:32;7.50;99.90
64855;DHT22;51321;50.428;8.378;2023-03-21T04:20:14;7.50;99.90
64855;DHT22;51321;50.428;8.378;2023-03-21T04:23:00;7.40;99.90
64855;DHT22;51321;50.428;8.378;2023-03-21T04:25:45;7.40;99.90
64855;DHT22;51321;50.428;8.378;2023-03-21T04:28:26;7.30;99.90
64855;DHT22;51321;50.428;8.378;2023-03-21T04:31:18;7.20;99.90
64855;DHT22;51321;50.428;8.378;2023-03-21T04:34:08;7.30;99.90
64855;DHT22;51321;50.428;8.378;2023-03-21T04:36:57;7.30;99.90
64855;DHT22;51321;50.428;8.378;2023-03-21T04:39:40;7.10;99.90
64855;DHT22;51321;50.428;8.378;2023-03-21T04:42:25;7.00;99.90
64855;DHT22;51321;50.428;8.378;2023-03-21T04:45:10;7.00;99.90
64855;DHT22;51321;50.428;8.378;2023-03-21T04:47:56;7.00;99.90
64855;DHT22;51321;50.428;8.378;2023-03-21T04:50:43;6.80;99.90
64855;DHT22;51321;50.428;8.378;2023-03-21T04:53:25;6.80;99.90
64855;DHT22;51321;50.428;8.378;2023-03-21T04:56:10;6.60;99.90
64855;DHT22;51321;50.428;8.378;2023-03-21T04:58:51;6.50;99.90
64855;DHT22;51321;50.428;8.378;2023-03-21T05:01:33;6.50;99.90
64855;DHT22;51321;50.428;8.378;2023-03-21T05:04:17;6.40;99.90
64855;DHT22;51321;50.428;8.378;2023-03-21T05:07:05;6.50;99.90
64855;DHT22;51321;50.428;8.378;2023-03-21T05:09:53;6.50;99.90
64855;DHT22;51321;50.428;8.378;2023-03-21T05:12:38;6.40;99.90
64855;DHT22;51321;50.428;8.378;2023-03-21T05:15:21;6.30;99.90
64855;DHT22;51321;50.428;8.378;2023-03-21T05:18:03;6.30;99.90
64855;DHT22;51321;50.428;8.378;2023-03-21T05:20:55;6.30;99.90
64855;DHT22;51321;50.428;8.378;2023-03-21T05:23:39;6.40;99.90
64855;DHT22;51321;50.428;8.378;2023-03-21T05:26:22;6.30;99.90
64855;DHT22;51321;50.428;8.378;2023-03-21T05:29:25;6.20;99.90
64855;DHT22;51321;50.428;8.378;2023-03-21T05:32:16;6.20;99.90
64855;DHT22;51321;50.428;8.378;2023-03-21T05:34:59;6.10;99.90
64855;DHT22;51321;50.428;8.378;2023-03-21T05:37:44;6.10;99.90
64855;DHT22;51321;50.428;8.378;2023-03-21T05:40:28;6.10;99.90
64855;DHT22;51321;50.428;8.378;2023-03-21T05:43:13;6.10;99.90
64855;DHT22;51321;50.428;8.378;2023-03-21T05:45:56;6.10;99.90
64855;DHT22;51321;50.428;8.378;2023-03-21T05:48:41;6.10;99.90
64855;DHT22;51321;50.428;8.378;2023-03-21T05:51:29;6.20;99.90
64855;DHT22;51321;50.428;8.378;2023-03-21T05:54:13;6.20;99.90
64855;DHT22;51321;50.428;8.378;2023-03-21T05:57:00;6.20;99.90
64855;DHT22;51321;50.428;8.378;2023-03-21T06:00:01;6.30;99.90
64855;DHT22;51321;50.428;8.378;2023-03-21T06:03:05;6.50;99.90
64855;DHT22;51321;50.428;8.378;2023-03-21T06:06:10;6.60;99.90
64855;DHT22;51321;50.428;8.378;2023-03-21T06:09:11;6.60;99.90
64855;DHT22;51321;50.428;8.378;2023-03-21T06:12:01;6.70;99.90
64855;DHT22;51321;50.428;8.378;2023-03-21T06:14:45;6.90;99.90
64855;DHT22;51321;50.428;8.378;2023-03-21T06:17:56;7.20;99.90
64855;DHT22;51321;50.428;8.378;2023-03-21T06:20:39;7.40;99.90
64855;DHT22;51321;50.428;8.378;2023-03-21T06:23:25;7.60;99.90
64855;DHT22;51321;50.428;8.378;2023-03-21T06:26:08;7.50;99.90
64855;DHT22;51321;50.428;8.378;2023-03-21T06:28:52;7.50;99.90
64855;DHT22;51321;50.428;8.378;2023-03-21T06:31:33;7.60;99.90
64855;DHT22;51321;50.428;8.378;2023-03-21T06:34:16;7.60;99.90
64855;DHT22;51321;50.428;8.378;2023-03-21T06:36:59;7.90;99.90
64855;DHT22;51321;50.428;8.378;2023-03-21T06:39:45;8.00;99.90
64855;DHT22;51321;50.428;8.378;2023-03-21T06:42:32;8.00;99.90
64855;DHT22;51321;50.428;8.378;2023-03-21T06:45:22;8.00;99.90
64855;DHT22;51321;50.428;8.378;2023-03-21T06:48:07;8.10;99.90
64855;DHT22;51321;50.428;8.378;2023-03-21T06:51:02;8.00;99.90
64855;DHT22;51321;50.428;8.378;2023-03-21T06:53:50;8.10;99.90
64855;DHT22;51321;50.428;8.378;2023-03-21T06:56:37;8.10;99.90
64855;DHT22;51321;50.428;8.378;2023-03-21T06:59:24;8.10;99.90
64855;DHT22;51321;50.428;8.378;2023-03-21T07:02:12;8.30;99.90
64855;DHT22;51321;50.428;8.378;2023-03-21T07:05:01;8.20;99.90
64855;DHT22;51321;50.428;8.378;2023-03-21T07:07:54;8.40;99.90
64855;DHT22;51321;50.428;8.378;2023-03-21T07:10:41;8.70;99.90
64855;DHT22;51321;50.428;8.378;2023-03-21T07:13:29;8.80;99.90
64855;DHT22;51321;50.428;8.378;2023-03-21T07:16:19;8.80;99.90
64855;DHT22;51321;50.428;8.378;2023-03-21T07:19:02;8.80;99.90
64855;DHT22;51321;50.428;8.378;2023-03-21T07:21:46;9.00;99.90
64855;DHT22;51321;50.428;8.378;2023-03-21T07:24:28;9.10;99.90
64855;DHT22;51321;50.428;8.378;2023-03-21T07:27:09;9.20;99.90
64855;DHT22;51321;50.428;8.378;2023-03-21T07:29:52;9.30;99.90
64855;DHT22;51321;50.428;8.378;2023-03-21T07:32:35;9.30;99.90
64855;DHT22;51321;50.428;8.378;2023-03-21T07:35:20;9.30;99.90
64855;DHT22;51321;50.428;8.378;2023-03-21T07:38:04;9.40;99.90
64855;DHT22;51321;50.428;8.378;2023-03-21T07:40:47;9.70;99.90
64855;DHT22;51321;50.428;8.378;2023-03-21T07:43:30;10.10;99.90
64855;DHT22;51321;50.428;8.378;2023-03-21T07:46:12;10.30;99.90
64855;DHT22;51321;50.428;8.378;2023-03-21T07:48:53;10.40;99.90
64855;DHT22;51321;50.428;8.378;2023-03-21T07:51:36;10.50;99.90
64855;DHT22;51321;50.428;8.378;2023-03-21T07:54:17;10.50;99.90
64855;DHT22;51321;50.428;8.378;2023-03-21T07:57:02;10.50;99.90
64855;DHT22;51321;50.428;8.378;2023-03-21T07:59:44;10.60;99.90
64855;DHT22;51321;50.428;8.378;2023-03-21T08:02:26;10.70;99.90
64855;DHT22;51321;50.428;8.378;2023-03-21T08:05:07;10.80;99.90
64855;DHT22;51321;50.428;8.378;2023-03-21T08:07:51;10.90;99.90
64855;DHT22;51321;50.428;8.378;2023-03-21T08:10:33;10.80;99.90
64855;DHT22;51321;50.428;8.378;2023-03-21T08:13:15;10.80;99.90
64855;DHT22;51321;50.428;8.378;2023-03-21T08:15:56;10.80;99.90
64855;DHT22;51321;50.428;8.378;2023-03-21T08:18:38;10.80;99.90
64855;DHT22;51321;50.428;8.378;2023-03-21T08:21:21;11.00;99.90
64855;DHT22;51321;50.428;8.378;2023-03-21T08:24:04;11.10;99.90
64855;DHT22;51321;50.428;8.378;2023-03-21T08:26:46;11.00;99.90
64855;DHT22;51321;50.428;8.378;2023-03-21T08:29:28;11.00;99.90
64855;DHT22;51321;50.428;8.378;2023-03-21T08:32:09;11.00;99.90
64855;DHT22;51321;50.428;8.378;2023-03-21T08:34:50;11.10;99.90
64855;DHT22;51321;50.428;8.378;2023-03-21T08:37:32;11.10;99.90
64855;DHT22;51321;50.428;8.378;2023-03-21T08:40:19;11.20;99.90
64855;DHT22;51321;50.428;8.378;2023-03-21T08:43:00;11.20;99.90
64855;DHT22;51321;50.428;8.378;2023-03-21T08:45:43;11.30;99.90
64855;DHT22;51321;50.428;8.378;2023-03-21T08:48:25;11.40;99.90
64855;DHT22;51321;50.428;8.378;2023-03-21T08:51:09;11.50;99.90
64855;DHT22;51321;50.428;8.378;2023-03-21T08:53:51;11.60;99.90
64855;DHT22;51321;50.428;8.378;2023-03-21T08:56:35;11.70;99.90
64855;DHT22;51321;50.428;8.378;2023-03-21T08:59:20;11.80;99.90
64855;DHT22;51321;50.428;8.378;2023-03-21T09:02:03;12.00;99.90
64855;DHT22;51321;50.428;8.378;2023-03-21T09:04:44;12.20;99.90
64855;DHT22;51321;50.428;8.378;2023-03-21T09:07:26;12.30;99.90
64855;DHT22;51321;50.428;8.378;2023-03-21T09:10:14;12.40;99.90
64855;DHT22;51321;50.428;8.378;2023-03-21T09:12:57;12.50;99.90
64855;DHT22;51321;50.428;8.378;2023-03-21T09:15:38;12.60;99.90
64855;DHT22;51321;50.428;8.378;2023-03-21T09:18:19;12.50;99.90
64855;DHT22;51321;50.428;8.378;2023-03-21T09:21:01;12.50;99.90
64855;DHT22;51321;50.428;8.378;2023-03-21T09:23:51;12.50;99.90
64855;DHT22;51321;50.428;8.378;2023-03-21T09:26:34;12.80;99.90
64855;DHT22;51321;50.428;8.378;2023-03-21T09:29:17;12.80;99.90
64855;DHT22;51321;50.428;8.378;2023-03-21T09:32:00;13.00;99.90
64855;DHT22;51321;50.428;8.378;2023-03-21T09:34:42;13.00;99.90
64855;DHT22;51321;50.428;8.378;2023-03-21T09:37:24;12.90;99.90
64855;DHT22;51321;50.428;8.378;2023-03-21T09:40:17;12.90;99.90
64855;DHT22;51321;50.428;8.378;2023-03-21T09:43:04;12.90;99.90
64855;DHT22;51321;50.428;8.378;2023-03-21T09:45:57;12.60;99.90
64855;DHT22;51321;50.428;8.378;2023-03-21T09:48:48;12.60;99.90
64855;DHT22;51321;50.428;8.378;2023-03-21T09:51:34;12.40;99.90
64855;DHT22;51321;50.428;8.378;2023-03-21T09:54:22;12.30;99.90
64855;DHT22;51321;50.428;8.378;2023-03-21T09:57:16;12.20;99.90
64855;DHT22;51321;50.428;8.378;2023-03-21T10:00:04;12.20;99.90
64855;DHT22;51321;50.428;8.378;2023-03-21T10:02:54;12.20;99.90
64855;DHT22;51321;50.428;8.378;2023-03-21T10:05:39;12.20;99.90
64855;DHT22;51321;50.428;8.378;2023-03-21T10:08:26;12.30;99.90
64855;DHT22;51321;50.428;8.378;2023-03-21T10:11:12;12.30;99.90
64855;DHT22;51321;50.428;8.378;2023-03-21T10:14:01;12.30;99.90
64855;DHT22;51321;50.428;8.378;2023-03-21T10:16:47;12.30;99.90
64855;DHT22;51321;50.428;8.378;2023-03-21T10:19:31;12.30;99.90
64855;DHT22;51321;50.428;8.378;2023-03-21T10:22:14;12.40;99.90
64855;DHT22;51321;50.428;8.378;2023-03-21T10:24:55;12.50;99.90
64855;DHT22;51321;50.428;8.378;2023-03-21T10:27:37;12.50;99.90
64855;DHT22;51321;50.428;8.378;2023-03-21T10:30:34;12.60;99.90
64855;DHT22;51321;50.428;8.378;2023-03-21T10:33:18;12.60;99.90
64855;DHT22;51321;50.428;8.378;2023-03-21T10:36:06;12.60;99.90
64855;DHT22;51321;50.428;8.378;2023-03-21T10:38:51;12.60;99.90
64855;DHT22;51321;50.428;8.378;2023-03-21T10:41:33;12.60;99.90
64855;DHT22;51321;50.428;8.378;2023-03-21T10:44:16;12.60;99.90
64855;DHT22;51321;50.428;8.378;2023-03-21T10:46:58;12.70;99.90
64855;DHT22;51321;50.428;8.378;2023-03-21T10:49:46;12.70;99.90
64855;DHT22;51321;50.428;8.378;2023-03-21T10:52:31;12.60;99.90
64855;DHT22;51321;50.428;8.378;2023-03-21T10:55:19;12.70;99.90
64855;DHT22;51321;50.428;8.378;2023-03-21T10:58:04;12.70;99.90
64855;DHT22;51321;50.428;8.378;2023-03-21T11:00:47;12.70;99.90
64855;DHT22;51321;50.428;8.378;2023-03-21T11:03:31;12.70;99.90
64855;DHT22;51321;50.428;8.378;2023-03-21T11:09:17;12.60;99.90
64855;DHT22;51321;50.428;8.378;2023-03-21T11:12:10;12.50;99.90
64855;DHT22;51321;50.428;8.378;2023-03-21T11:14:52;12.50;99.90
64855;DHT22;51321;50.428;8.378;2023-03-21T11:17:34;12.60;99.90
64855;DHT22;51321;50.428;8.378;2023-03-21T11:20:17;12.50;99.90
64855;DHT22;51321;50.428;8.378;2023-03-21T11:22:58;12.50;99.90
64855;DHT22;51321;50.428;8.378;2023-03-21T11:25:47;12.60;99.90
64855;DHT22;51321;50.428;8.378;2023-03-21T11:28:34;12.50;99.90
64855;DHT22;51321;50.428;8.378;2023-03-21T11:31:16;12.50;99.90
64855;DHT22;51321;50.428;8.378;2023-03-21T11:34:06;12.50;99.90
64855;DHT22;51321;50.428;8.378;2023-03-21T11:36:50;12.40;99.90
64855;DHT22;51321;50.428;8.378;2023-03-21T11:39:34;12.40;99.90
64855;DHT22;51321;50.428;8.378;2023-03-21T11:42:42;12.40;99.90
64855;DHT22;51321;50.428;8.378;2023-03-21T11:45:27;12.60;99.90
64855;DHT22;51321;50.428;8.378;2023-03-21T11:48:12;12.50;99.90
64855;DHT22;51321;50.428;8.378;2023-03-21T11:51:01;12.60;99.90
64855;DHT22;51321;50.428;8.378;2023-03-21T11:53:48;12.60;99.90
64855;DHT22;51321;50.428;8.378;2023-03-21T11:56:36;12.60;99.90
64855;DHT22;51321;50.428;8.378;2023-03-21T11:59:37;12.50;99.90
64855;DHT22;51321;50.428;8.378;2023-03-21T12:02:44;12.60;99.90
64855;DHT22;51321;50.428;8.378;2023-03-21T12:05:36;12.50;99.90
64855;DHT22;51321;50.428;8.378;2023-03-21T12:08:25;12.50;99.90
64855;DHT22;51321;50.428;8.378;2023-03-21T12:11:15;12.50;99.90
64855;DHT22;51321;50.428;8.378;2023-03-21T12:14:03;12.60;99.90
64855;DHT22;51321;50.428;8.378;2023-03-21T12:16:56;12.40;99.90
64855;DHT22;51321;50.428;8.378;2023-03-21T12:19:57;12.30;99.90
64855;DHT22;51321;50.428;8.378;2023-03-21T12:22:55;12.30;99.90
64855;DHT22;51321;50.428;8.378;2023-03-21T12:25:45;12.30;99.90
64855;DHT22;51321;50.428;8.378;2023-03-21T12:28:38;12.20;99.90
64855;DHT22;51321;50.428;8.378;2023-03-21T12:31:32;12.10;99.90
64855;DHT22;51321;50.428;8.378;2023-03-21T12:34:35;12.00;99.90
64855;DHT22;51321;50.428;8.378;2023-03-21T12:37:26;11.90;99.90
64855;DHT22;51321;50.428;8.378;2023-03-21T12:40:19;11.80;99.90
64855;DHT22;51321;50.428;8.378;2023-03-21T12:43:12;11.60;99.90
64855;DHT22;51321;50.428;8.378;2023-03-21T12:46:03;11.60;99.90
64855;DHT22;51321;50.428;8.378;2023-03-21T12:48:49;11.60;99.90
64855;DHT22;51321;50.428;8.378;2023-03-21T12:51:36;11.50;99.90
64855;DHT22;51321;50.428;8.378;2023-03-21T12:54:25;11.60;99.90
64855;DHT22;51321;50.428;8.378;2023-03-21T12:57:11;11.50;99.90
64855;DHT22;51321;50.428;8.378;2023-03-21T12:59:59;11.60;99.90
64855;DHT22;51321;50.428;8.378;2023-03-21T13:02:49;11.60;99.90
64855;DHT22;51321;50.428;8.378;2023-03-21T13:05:34;11.60;99.90
64855;DHT22;51321;50.428;8.378;2023-03-21T13:08:23;11.70;99.90
64855;DHT22;51321;50.428;8.378;2023-03-21T13:11:09;11.70;99.90
64855;DHT22;51321;50.428;8.378;2023-03-21T13:13:56;11.70;99.90
64855;DHT22;51321;50.428;8.378;2023-03-21T13:16:41;11.60;99.90
64855;DHT22;51321;50.428;8.378;2023-03-21T13:19:27;11.60;99.90
64855;DHT22;51321;50.428;8.378;2023-03-21T13:22:16;11.70;99.90
64855;DHT22;51321;50.428;8.378;2023-03-21T13:25:05;11.80;99.90
64855;DHT22;51321;50.428;8.378;2023-03-21T13:27:52;11.60;99.90
64855;DHT22;51321;50.428;8.378;2023-03-21T13:30:34;11.50;99.90
64855;DHT22;51321;50.428;8.378;2023-03-21T13:33:20;11.50;99.90
64855;DHT22;51321;50.428;8.378;2023-03-21T13:36:05;11.50;99.90
64855;DHT22;51321;50.428;8.378;2023-03-21T13:38:52;11.60;99.90
64855;DHT22;51321;50.428;8.378;2023-03-21T13:41:42;11.50;99.90
64855;DHT22;51321;50.428;8.378;2023-03-21T13:44:31;11.50;99.90
64855;DHT22;51321;50.428;8.378;2023-03-21T13:47:29;11.30;99.90
64855;DHT22;51321;50.428;8.378;2023-03-21T13:50:49;11.20;99.90
64855;DHT22;51321;50.428;8.378;2023-03-21T13:53:32;11.10;99.90
64855;DHT22;51321;50.428;8.378;2023-03-21T13:56:21;11.00;99.90
64855;DHT22;51321;50.428;8.378;2023-03-21T13:59:09;11.10;99.90
64855;DHT22;51321;50.428;8.378;2023-03-21T14:02:11;11.00;99.90
64855;DHT22;51321;50.428;8.378;2023-03-21T14:05:01;11.10;99.90
64855;DHT22;51321;50.428;8.378;2023-03-21T14:07:45;11.00;99.90
64855;DHT22;51321;50.428;8.378;2023-03-21T14:10:29;11.00;99.90
64855;DHT22;51321;50.428;8.378;2023-03-21T14:13:16;11.00;99.90
64855;DHT22;51321;50.428;8.378;2023-03-21T14:16:05;11.00;99.90
64855;DHT22;51321;50.428;8.378;2023-03-21T14:18:51;11.00;99.90
64855;DHT22;51321;50.428;8.378;2023-03-21T14:21:34;11.00;99.90
64855;DHT22;51321;50.428;8.378;2023-03-21T14:24:16;11.00;99.90
64855;DHT22;51321;50.428;8.378;2023-03-21T14:27:06;11.00;99.90
64855;DHT22;51321;50.428;8.378;2023-03-21T14:29:49;11.00;99.90
64855;DHT22;51321;50.428;8.378;2023-03-21T14:32:34;11.10;99.90
64855;DHT22;51321;50.428;8.378;2023-03-21T14:35:15;11.10;99.90
64855;DHT22;51321;50.428;8.378;2023-03-21T14:38:00;11.10;99.90
64855;DHT22;51321;50.428;8.378;2023-03-21T14:40:46;11.10;99.90
64855;DHT22;51321;50.428;8.378;2023-03-21T14:43:28;11.10;99.90
64855;DHT22;51321;50.428;8.378;2023-03-21T14:46:13;11.10;99.90
64855;DHT22;51321;50.428;8.378;2023-03-21T14:49:09;11.20;99.90
64855;DHT22;51321;50.428;8.378;2023-03-21T14:51:54;11.20;99.90
64855;DHT22;51321;50.428;8.378;2023-03-21T14:54:39;11.10;99.90
64855;DHT22;51321;50.428;8.378;2023-03-21T14:57:22;11.10;99.90
64855;DHT22;51321;50.428;8.378;2023-03-21T15:00:17;11.20;99.90
64855;DHT22;51321;50.428;8.378;2023-03-21T15:03:00;11.30;99.90
64855;DHT22;51321;50.428;8.378;2023-03-21T15:05:43;11.40;99.90
64855;DHT22;51321;50.428;8.378;2023-03-21T15:08:27;11.30;99.90
64855;DHT22;51321;50.428;8.378;2023-03-21T15:11:12;11.30;99.90
64855;DHT22;51321;50.428;8.378;2023-03-21T15:13:56;11.30;99.90
64855;DHT22;51321;50.428;8.378;2023-03-21T15:16:40;11.30;99.90
64855;DHT22;51321;50.428;8.378;2023-03-21T15:19:28;11.40;99.90
64855;DHT22;51321;50.428;8.378;2023-03-21T15:22:19;11.30;99.90
64855;DHT22;51321;50.428;8.378;2023-03-21T15:25:08;11.30;99.90
64855;DHT22;51321;50.428;8.378;2023-03-21T15:27:54;11.40;99.90
64855;DHT22;51321;50.428;8.378;2023-03-21T15:30:46;11.50;99.90
64855;DHT22;51321;50.428;8.378;2023-03-21T15:33:31;11.40;99.90
64855;DHT22;51321;50.428;8.378;2023-03-21T15:36:18;11.50;99.90
64855;DHT22;51321;50.428;8.378;2023-03-21T15:39:04;11.50;99.90
64855;DHT22;51321;50.428;8.378;2023-03-21T15:41:59;11.40;99.90
64855;DHT22;51321;50.428;8.378;2023-03-21T15:44:46;11.40;99.90
64855;DHT22;51321;50.428;8.378;2023-03-21T15:47:41;11.50;99.90
64855;DHT22;51321;50.428;8.378;2023-03-21T15:50:28;11.40;99.90
64855;DHT22;51321;50.428;8.378;2023-03-21T15:53:17;11.40;99.90
64855;DHT22;51321;50.428;8.378;2023-03-21T15:56:02;11.30;99.90
64855;DHT22;51321;50.428;8.378;2023-03-21T15:58:48;11.20;99.90
64855;DHT22;51321;50.428;8.378;2023-03-21T16:01:32;11.20;99.90
64855;DHT22;51321;50.428;8.378;2023-03-21T16:04:18;11.20;99.90
64855;DHT22;51321;50.428;8.378;2023-03-21T16:09:59;11.20;99.90
64855;DHT22;51321;50.428;8.378;2023-03-21T16:12:42;11.20;99.90
64855;DHT22;51321;50.428;8.378;2023-03-21T16:15:25;11.10;99.90
64855;DHT22;51321;50.428;8.378;2023-03-21T16:18:11;11.10;99.90
64855;DHT22;51321;50.428;8.378;2023-03-21T16:20:54;11.20;99.90
64855;DHT22;51321;50.428;8.378;2023-03-21T16:23:38;11.20;99.90
64855;DHT22;51321;50.428;8.378;2023-03-21T16:26:22;11.20;99.90
64855;DHT22;51321;50.428;8.378;2023-03-21T16:29:05;11.10;99.90
64855;DHT22;51321;50.428;8.378;2023-03-21T16:31:47;11.10;99.90
64855;DHT22;51321;50.428;8.378;2023-03-21T16:34:29;11.10;99.90
64855;DHT22;51321;50.428;8.378;2023-03-21T16:37:13;11.20;99.90
64855;DHT22;51321;50.428;8.378;2023-03-21T16:39:55;11.20;99.90
64855;DHT22;51321;50.428;8.378;2023-03-21T16:42:36;11.10;99.90
64855;DHT22;51321;50.428;8.378;2023-03-21T16:45:19;11.00;99.90
64855;DHT22;51321;50.428;8.378;2023-03-21T16:48:02;10.90;99.90
64855;DHT22;51321;50.428;8.378;2023-03-21T16:50:46;10.90;99.90
64855;DHT22;51321;50.428;8.378;2023-03-21T16:53:30;10.80;99.90
64855;DHT22;51321;50.428;8.378;2023-03-21T16:56:19;10.80;99.90
64855;DHT22;51321;50.428;8.378;2023-03-21T16:59:02;10.80;99.90
64855;DHT22;51321;50.428;8.378;2023-03-21T17:01:48;10.70;99.90
64855;DHT22;51321;50.428;8.378;2023-03-21T17:04:30;10.70;99.90
64855;DHT22;51321;50.428;8.378;2023-03-21T17:07:13;10.70;99.90
64855;DHT22;51321;50.428;8.378;2023-03-21T17:09:56;10.70;99.90
64855;DHT22;51321;50.428;8.378;2023-03-21T17:12:37;10.60;99.90
64855;DHT22;51321;50.428;8.378;2023-03-21T17:15:19;10.60;99.90
64855;DHT22;51321;50.428;8.378;2023-03-21T17:18:03;10.60;99.90
64855;DHT22;51321;50.428;8.378;2023-03-21T17:20:45;10.50;99.90
64855;DHT22;51321;50.428;8.378;2023-03-21T17:23:30;10.40;99.90
64855;DHT22;51321;50.428;8.378;2023-03-21T17:26:15;10.30;99.90
64855;DHT22;51321;50.428;8.378;2023-03-21T17:28:58;10.20;99.90
64855;DHT22;51321;50.428;8.378;2023-03-21T17:31:44;10.00;99.90
64855;DHT22;51321;50.428;8.378;2023-03-21T17:34:32;9.90;99.90
64855;DHT22;51321;50.428;8.378;2023-03-21T17:37:14;9.80;99.90
64855;DHT22;51321;50.428;8.378;2023-03-21T17:39:56;9.60;99.90
64855;DHT22;51321;50.428;8.378;2023-03-21T17:42:39;9.40;99.90
64855;DHT22;51321;50.428;8.378;2023-03-21T17:45:20;9.30;99.90
64855;DHT22;51321;50.428;8.378;2023-03-21T17:48:02;9.20;99.90
64855;DHT22;51321;50.428;8.378;2023-03-21T17:50:45;9.10;99.90
64855;DHT22;51321;50.428;8.378;2023-03-21T17:53:30;9.10;99.90
64855;DHT22;51321;50.428;8.378;2023-03-21T17:56:13;9.10;99.90
64855;DHT22;51321;50.428;8.378;2023-03-21T17:58:58;8.90;99.90
64855;DHT22;51321;50.428;8.378;2023-03-21T18:01:40;8.80;99.90